DIRECCIÓN GENERAL DE AERONÁUTICA CIVIL
DIRECCIÓN METEOROLÓGICA DE CHILE
INFORMACIÓN METAR Y TAF

FIR PUERTO MONTT

Estación: SCQP
METAR SCQP 231000Z 29001KT 9000 2000N VCFG SCT003 06/06 Q1017=

TAF SCQP 230430Z 2306/2406 VRB02KT CAVOK TN07/2309Z TX22/2319Z PROB40 TEMPO 2307/2311 2000 BR SKC BECMG 2316/2318 23010KT BECMG 2401/2403 VRB01KT=

Estación: SCVD
METAR SCVD 231000Z AUTO 00000KT CAVOK 06/06 Q1019=

TAF SCVD 221630Z 2218/2306 21005KT CAVOK TX19/2219Z TN08/2306Z=

Estación: SCJO
METAR SCJO 222200Z 16005KT 140V230 9999 FEW030 BKN200 19/06 Q1020=

TAF SCJO 221650Z 2218/2306 VRB02KT 9999 FEW030 TX19/2219Z TN09/2306Z BECMG 2300/2302 20007KT=

Estación: SCTE
METAR SCTE 231000Z 15012KT 9999 BKN008 10/08 Q1021 NOSIG=

TAF SCTE 230430Z 2306/2406 VRB02KT 5000 BR NSC TN07/2308Z TX17/2319Z TEMPO 2307/2312 3000 BR BKN012 BECMG 2312/2314 16008KT 9999 SCT015 BECMG 2318/2320 15014KT FEW030 BECMG 2402/2404 18005KT=

Estación: SCPQ
METAR SCPQ 231000Z AUTO 20006KT //// R35/P2000N NCD 07/07 Q1022=

TAF SCPQ 221650Z 2218/2306 33010KT 9999 SCT035 TX17/2219Z TN09/2306Z BECMG 2300/2302 27007KT CAVOK BECMG 2304/2306 18007KT BKN020=

Estación: SCON
METAR SCON 231000Z AUTO 24003KT 190V270 9999 ///015 10/08 Q1023=

TAF SCON 221630Z 2218/2306 33007KT 9999 BKN025 TX15/2219Z TN08/2306Z PROB30 TEMPO 2218/2221 5000 -SHRA BECMG 2300/2302 27005KT BKN017=

Estación: SCTN
NIL=

NIL=

Estación: SCFT
METAR SCFT 231000Z AUTO VRB02KT CAVOK 04/03 Q1022=

NIL=

Estación: SCAP
SPECI SCAP 231001Z AUTO VRB01KT //// // BKN008 04/03 Q1028=

NIL=

Estación: SCMK
METAR SCMK 222100Z 24005KT 9999 BKN015 14/10 Q1020=

TAF SCMK 221630Z 2218/2306 30010KT 9999 SCT010 TX16/2219Z TN12/2306Z PROB30 TEMPO 2218/2222 27005KT 5000 -SHRA BKN012 BECMG 2300/2302 18007KT SCT007=

Estación: SCAS
METAR SCAS 222000Z 25012KT 8000 -SHRA SCT027 BKN036 11/09 Q1019=

NIL=

Estación: SCCY
METAR SCCY 230000Z 00000KT 9999 SCT036 11/03 Q1019=

TAF SCCY 221630Z 2218/2306 29010KT 9999 BKN027 TX14/2219Z TN06/2306Z BECMG 2300/2302 CAVOK=

Estación: SCBA
METAR SCBA 231000Z AUTO 32017KT CAVOK 03/M01 Q1020=

TAF SCBA 230430Z 2306/2406 30020KT CAVOK TN02/2309Z TX14/2320Z=

Estación: SCCC
METAR SCCC 222000Z 28018KT 9999 FEW040 17/00 Q1014=

NIL=

Estación: SCHR
METAR SCHR 222000Z 21010KT 9999 BKN040 16/04 Q1012=

TAF AMD SCHR 221852Z 2219/2300 26010KT 9999 BKN040 TN10/2223Z TX15/2219Z=


Volver